Allentown, New Jersey
Current Conditions -  °F | °C
As of 2:58 PM on Thursday 29 Jan 2015 (Local Time) from KWRI Reporting Station
Overcast Overcast  
Wind Chill: 35°   Ceiling: 13000
Heat Index: 35°   Visibility: 10mi
Dew Point: 14°   Wind: 3mph
Humidity: 43%   Direction: 180°S
Pressure: 30.15"   Gusts: NA
Location:  40.18°N, 74.58°W
Report Text: KWRI 291958Z AUTO 18003KT 10SM BKN130 OVC150 02/M10 A3015 RMK AO2 SLP215 T00151100
Loading
Personal Weather Stations






























Interactive Weather Map New forecast layout! Learn more

10-Day Weather Forecast

Advertisements
Track Severe Weather on mobile